SAS9047 ENGM-ESGG
Flight info
| Callsign | SAS9047 |
|---|---|
| Flight time | 0h 31m |
| Altitude | 27000 |
| Route | OKSAT L996 KELIN |
| Aircraft | A319/M-SDE3FGIJ1RWXY/LB1 |
Departure
| Time | 2026-05-04 14:25 |
|---|---|
| Airport | Oslo-Gardermoen International Airport (ENGM) |
Arrival
| Time | 2026-05-04 14:57 |
|---|---|
| Airport | Göteborg Landvetter Airport (ESGG) |
| Time | Latitude | Longitude | Altitude | Speed | Heading |
|---|---|---|---|---|---|
| 2026-05-04 14:03 | 60.19564 | 11.10150 | 685 ft | 0 kts | 286° |
| 2026-05-04 14:17 | 60.19559 | 11.10184 | 679 ft | 4 kts | 286° |
| 2026-05-04 14:17 | 60.19553 | 11.10230 | 680 ft | 1 kts | 286° |
| 2026-05-04 14:17 | 60.19552 | 11.10231 | 679 ft | 0 kts | 286° |
| 2026-05-04 14:20 | 60.19554 | 11.10227 | 680 ft | 1 kts | 293° |
| 2026-05-04 14:21 | 60.19560 | 11.10230 | 680 ft | 1 kts | 1° |
| 2026-05-04 14:21 | 60.19566 | 11.10254 | 680 ft | 4 kts | 71° |
| 2026-05-04 14:21 | 60.19581 | 11.10342 | 682 ft | 9 kts | 71° |
| 2026-05-04 14:21 | 60.19603 | 11.10484 | 683 ft | 8 kts | 91° |
| 2026-05-04 14:22 | 60.19583 | 11.10608 | 683 ft | 10 kts | 106° |
| 2026-05-04 14:22 | 60.19561 | 11.10762 | 680 ft | 13 kts | 105° |
| 2026-05-04 14:22 | 60.19536 | 11.10945 | 681 ft | 14 kts | 106° |
| 2026-05-04 14:22 | 60.19505 | 11.11158 | 678 ft | 17 kts | 106° |
| 2026-05-04 14:23 | 60.19519 | 11.11505 | 682 ft | 13 kts | 15° |
| 2026-05-04 14:23 | 60.19613 | 11.11558 | 683 ft | 15 kts | 17° |
| 2026-05-04 14:23 | 60.19683 | 11.11601 | 684 ft | 8 kts | 17° |
| 2026-05-04 14:24 | 60.19717 | 11.11680 | 683 ft | 9 kts | 89° |
| 2026-05-04 14:24 | 60.19691 | 11.11806 | 684 ft | 8 kts | 117° |
| 2026-05-04 14:24 | 60.19653 | 11.11897 | 685 ft | 10 kts | 135° |
| 2026-05-04 14:24 | 60.19602 | 11.11949 | 684 ft | 10 kts | 192° |
| 2026-05-04 14:25 | 60.19403 | 11.11836 | 683 ft | 62 kts | 196° |
| 2026-05-04 14:25 | 60.17847 | 11.10972 | 1009 ft | 143 kts | 200° |
| 2026-05-04 14:25 | 60.16868 | 11.10493 | 1699 ft | 145 kts | 201° |
| 2026-05-04 14:26 | 60.15895 | 11.09932 | 2371 ft | 145 kts | 205° |
| 2026-05-04 14:26 | 60.14882 | 11.09318 | 2814 ft | 162 kts | 204° |
| 2026-05-04 14:26 | 60.13675 | 11.09021 | 3134 ft | 194 kts | 179° |
| 2026-05-04 14:26 | 60.12358 | 11.10289 | 3475 ft | 235 kts | 142° |
| 2026-05-04 14:27 | 60.11145 | 11.12772 | 4010 ft | 261 kts | 137° |
| 2026-05-04 14:27 | 60.09849 | 11.15529 | 4767 ft | 278 kts | 137° |
| 2026-05-04 14:27 | 60.08474 | 11.18320 | 5781 ft | 283 kts | 141° |
| 2026-05-04 14:27 | 60.06991 | 11.20960 | 6788 ft | 288 kts | 143° |
| 2026-05-04 14:28 | 60.05446 | 11.23588 | 7805 ft | 293 kts | 144° |
| 2026-05-04 14:28 | 60.03876 | 11.26226 | 8838 ft | 297 kts | 145° |
| 2026-05-04 14:28 | 60.02299 | 11.28865 | 9825 ft | 302 kts | 145° |
| 2026-05-04 14:28 | 60.00616 | 11.31599 | 10321 ft | 322 kts | 150° |
| 2026-05-04 14:29 | 59.96507 | 11.35714 | 11727 ft | 337 kts | 160° |
| 2026-05-04 14:29 | 59.92220 | 11.39834 | 13449 ft | 347 kts | 161° |
| 2026-05-04 14:30 | 59.90026 | 11.41946 | 14174 ft | 352 kts | 162° |
| 2026-05-04 14:30 | 59.87802 | 11.44085 | 14898 ft | 357 kts | 163° |
| 2026-05-04 14:30 | 59.83292 | 11.48412 | 16345 ft | 366 kts | 164° |
| 2026-05-04 14:31 | 59.80978 | 11.50616 | 17066 ft | 371 kts | 165° |
| 2026-05-04 14:31 | 59.76252 | 11.55086 | 18455 ft | 381 kts | 165° |
| 2026-05-04 14:32 | 59.71422 | 11.59675 | 19695 ft | 389 kts | 165° |
| 2026-05-04 14:32 | 59.68971 | 11.62006 | 20321 ft | 393 kts | 165° |
| 2026-05-04 14:32 | 59.66488 | 11.64359 | 20921 ft | 397 kts | 165° |
| 2026-05-04 14:32 | 59.63978 | 11.66735 | 21423 ft | 402 kts | 164° |
| 2026-05-04 14:33 | 59.61433 | 11.69138 | 21963 ft | 408 kts | 164° |
| 2026-05-04 14:33 | 59.58884 | 11.71540 | 22517 ft | 413 kts | 164° |
| 2026-05-04 14:33 | 59.56281 | 11.73987 | 23116 ft | 417 kts | 164° |
| 2026-05-04 14:33 | 59.53644 | 11.76456 | 23637 ft | 421 kts | 164° |
| 2026-05-04 14:34 | 59.50986 | 11.78942 | 24162 ft | 423 kts | 163° |
| 2026-05-04 14:34 | 59.48314 | 11.81441 | 24690 ft | 425 kts | 163° |
| 2026-05-04 14:34 | 59.45630 | 11.83948 | 25162 ft | 429 kts | 163° |
| 2026-05-04 14:34 | 59.42910 | 11.86479 | 25625 ft | 433 kts | 163° |
| 2026-05-04 14:35 | 59.40175 | 11.89018 | 26099 ft | 436 kts | 163° |
| 2026-05-04 14:35 | 59.37445 | 11.91550 | 26539 ft | 440 kts | 163° |
| 2026-05-04 14:35 | 59.34650 | 11.93967 | 26705 ft | 434 kts | 170° |
| 2026-05-04 14:35 | 59.31815 | 11.95255 | 26722 ft | 402 kts | 183° |
| 2026-05-04 14:36 | 59.29114 | 11.95407 | 26736 ft | 376 kts | 194° |
| 2026-05-04 14:36 | 59.26535 | 11.95070 | 26744 ft | 367 kts | 194° |
| 2026-05-04 14:36 | 59.23981 | 11.94762 | 26744 ft | 364 kts | 194° |
| 2026-05-04 14:36 | 59.21486 | 11.94476 | 26693 ft | 365 kts | 193° |
| 2026-05-04 14:37 | 59.18943 | 11.94196 | 26430 ft | 364 kts | 193° |
| 2026-05-04 14:37 | 59.16406 | 11.93927 | 26191 ft | 364 kts | 193° |
| 2026-05-04 14:37 | 59.13900 | 11.93671 | 25922 ft | 358 kts | 193° |
| 2026-05-04 14:37 | 59.11422 | 11.93421 | 25539 ft | 356 kts | 193° |
| 2026-05-04 14:38 | 59.08949 | 11.93166 | 25155 ft | 353 kts | 193° |
| 2026-05-04 14:38 | 59.06526 | 11.92909 | 24771 ft | 351 kts | 194° |
| 2026-05-04 14:38 | 59.04088 | 11.92647 | 24324 ft | 348 kts | 193° |
| 2026-05-04 14:38 | 59.01680 | 11.92387 | 23965 ft | 346 kts | 193° |
| 2026-05-04 14:39 | 58.99269 | 11.92122 | 23556 ft | 344 kts | 193° |
| 2026-05-04 14:39 | 58.96877 | 11.91862 | 23114 ft | 344 kts | 193° |
| 2026-05-04 14:39 | 58.94502 | 11.91605 | 22692 ft | 341 kts | 193° |
| 2026-05-04 14:40 | 58.89830 | 11.91104 | 21912 ft | 334 kts | 193° |
| 2026-05-04 14:40 | 58.87517 | 11.90852 | 21504 ft | 331 kts | 193° |
| 2026-05-04 14:40 | 58.85228 | 11.90603 | 21110 ft | 328 kts | 193° |
| 2026-05-04 14:40 | 58.82949 | 11.90358 | 20715 ft | 326 kts | 193° |
| 2026-05-04 14:41 | 58.80673 | 11.90296 | 20332 ft | 332 kts | 186° |
| 2026-05-04 14:41 | 58.78358 | 11.90867 | 19925 ft | 335 kts | 182° |
| 2026-05-04 14:41 | 58.73783 | 11.92124 | 19113 ft | 332 kts | 181° |
| 2026-05-04 14:42 | 58.69214 | 11.93382 | 18324 ft | 330 kts | 182° |
| 2026-05-04 14:42 | 58.66932 | 11.94006 | 17893 ft | 329 kts | 182° |
| 2026-05-04 14:42 | 58.64670 | 11.94623 | 17473 ft | 327 kts | 182° |
| 2026-05-04 14:43 | 58.62428 | 11.95235 | 17065 ft | 324 kts | 182° |
| 2026-05-04 14:43 | 58.60202 | 11.95844 | 16681 ft | 321 kts | 182° |
| 2026-05-04 14:43 | 58.57973 | 11.96436 | 16305 ft | 340 kts | 182° |
| 2026-05-04 14:43 | 58.55571 | 11.97046 | 15881 ft | 351 kts | 181° |
| 2026-05-04 14:44 | 58.53143 | 11.97688 | 15472 ft | 352 kts | 181° |
| 2026-05-04 14:44 | 58.50722 | 11.98346 | 15059 ft | 351 kts | 180° |
| 2026-05-04 14:44 | 58.48309 | 11.99010 | 14648 ft | 349 kts | 180° |
| 2026-05-04 14:44 | 58.45907 | 11.99674 | 14210 ft | 346 kts | 180° |
| 2026-05-04 14:45 | 58.43560 | 12.00315 | 13840 ft | 343 kts | 180° |
| 2026-05-04 14:45 | 58.41197 | 12.00956 | 13416 ft | 341 kts | 180° |
| 2026-05-04 14:45 | 58.38859 | 12.01585 | 12997 ft | 338 kts | 180° |
| 2026-05-04 14:45 | 58.36533 | 12.02203 | 12597 ft | 336 kts | 180° |
| 2026-05-04 14:46 | 58.34219 | 12.02815 | 12207 ft | 334 kts | 180° |
| 2026-05-04 14:46 | 58.31919 | 12.03424 | 11806 ft | 333 kts | 179° |
| 2026-05-04 14:46 | 58.29635 | 12.04031 | 11411 ft | 331 kts | 179° |
| 2026-05-04 14:46 | 58.27357 | 12.04638 | 11015 ft | 329 kts | 179° |
| 2026-05-04 14:47 | 58.25126 | 12.05315 | 10625 ft | 331 kts | 173° |
| 2026-05-04 14:47 | 58.22934 | 12.06948 | 10233 ft | 339 kts | 157° |
| 2026-05-04 14:47 | 58.20913 | 12.09143 | 9829 ft | 338 kts | 156° |
| 2026-05-04 14:47 | 58.18880 | 12.11367 | 9394 ft | 336 kts | 156° |
| 2026-05-04 14:48 | 58.16855 | 12.13570 | 8991 ft | 334 kts | 156° |
| 2026-05-04 14:48 | 58.14846 | 12.15743 | 8599 ft | 331 kts | 155° |
| 2026-05-04 14:48 | 58.12846 | 12.17902 | 8214 ft | 330 kts | 155° |
| 2026-05-04 14:48 | 58.10880 | 12.20021 | 7849 ft | 327 kts | 155° |
| 2026-05-04 14:49 | 58.08906 | 12.22146 | 7467 ft | 325 kts | 155° |
| 2026-05-04 14:49 | 58.06957 | 12.24245 | 7198 ft | 319 kts | 155° |
| 2026-05-04 14:49 | 58.05041 | 12.26303 | 6844 ft | 314 kts | 155° |
| 2026-05-04 14:49 | 58.03155 | 12.28326 | 6475 ft | 307 kts | 155° |
| 2026-05-04 14:50 | 58.01936 | 12.29630 | 6234 ft | 301 kts | 155° |
| 2026-05-04 14:50 | 58.00134 | 12.31556 | 5862 ft | 294 kts | 155° |
| 2026-05-04 14:50 | 57.98358 | 12.33366 | 5520 ft | 284 kts | 161° |
| 2026-05-04 14:50 | 57.96560 | 12.34630 | 5190 ft | 275 kts | 165° |
| 2026-05-04 14:51 | 57.94775 | 12.35856 | 4867 ft | 270 kts | 165° |
| 2026-05-04 14:51 | 57.93031 | 12.37057 | 4541 ft | 265 kts | 165° |
| 2026-05-04 14:51 | 57.91310 | 12.38241 | 4219 ft | 259 kts | 165° |
| 2026-05-04 14:51 | 57.89645 | 12.39391 | 4056 ft | 249 kts | 165° |
| 2026-05-04 14:52 | 57.88070 | 12.40480 | 3965 ft | 238 kts | 166° |
| 2026-05-04 14:52 | 57.86516 | 12.41178 | 3858 ft | 222 kts | 179° |
| 2026-05-04 14:52 | 57.85013 | 12.41357 | 3777 ft | 214 kts | 184° |
| 2026-05-04 14:52 | 57.83530 | 12.41509 | 3677 ft | 212 kts | 183° |
| 2026-05-04 14:53 | 57.82057 | 12.41654 | 3594 ft | 210 kts | 185° |
| 2026-05-04 14:53 | 57.80683 | 12.41154 | 3414 ft | 195 kts | 210° |
| 2026-05-04 14:53 | 57.79486 | 12.40065 | 3184 ft | 189 kts | 212° |
| 2026-05-04 14:53 | 57.78320 | 12.38990 | 2937 ft | 185 kts | 213° |
| 2026-05-04 14:54 | 57.77169 | 12.37932 | 2679 ft | 183 kts | 212° |
| 2026-05-04 14:54 | 57.76045 | 12.36903 | 2456 ft | 177 kts | 213° |
| 2026-05-04 14:54 | 57.74982 | 12.35931 | 2205 ft | 167 kts | 213° |
| 2026-05-04 14:54 | 57.73979 | 12.35016 | 1972 ft | 153 kts | 212° |
| 2026-05-04 14:55 | 57.73066 | 12.34181 | 1779 ft | 139 kts | 212° |
| 2026-05-04 14:55 | 57.72228 | 12.33416 | 1595 ft | 131 kts | 213° |
| 2026-05-04 14:55 | 57.71406 | 12.32657 | 1389 ft | 131 kts | 212° |
| 2026-05-04 14:55 | 57.70593 | 12.31912 | 1199 ft | 129 kts | 211° |
| 2026-05-04 14:56 | 57.69791 | 12.31179 | 1014 ft | 127 kts | 211° |
| 2026-05-04 14:56 | 57.68989 | 12.30466 | 877 ft | 128 kts | 212° |
| 2026-05-04 14:56 | 57.68191 | 12.29727 | 686 ft | 128 kts | 210° |
| 2026-05-04 14:56 | 57.67394 | 12.28999 | 525 ft | 127 kts | 210° |
| 2026-05-04 14:57 | 57.66707 | 12.28368 | 512 ft | 78 kts | 206° |
| 2026-05-04 14:57 | 57.66390 | 12.28076 | 511 ft | 45 kts | 206° |
| 2026-05-04 14:57 | 57.66192 | 12.27908 | 509 ft | 22 kts | 184° |
| 2026-05-04 14:57 | 57.66118 | 12.28046 | 509 ft | 11 kts | 115° |
| 2026-05-04 14:58 | 57.66112 | 12.28165 | 509 ft | 8 kts | 42° |
| 2026-05-04 14:58 | 57.66165 | 12.28227 | 510 ft | 10 kts | 21° |
| 2026-05-04 14:58 | 57.66236 | 12.28281 | 510 ft | 12 kts | 26° |
| 2026-05-04 14:58 | 57.66319 | 12.28358 | 511 ft | 15 kts | 26° |
| 2026-05-04 14:59 | 57.66419 | 12.28449 | 511 ft | 17 kts | 26° |
| 2026-05-04 14:59 | 57.66534 | 12.28553 | 512 ft | 20 kts | 26° |
| 2026-05-04 14:59 | 57.66740 | 12.28743 | 513 ft | 18 kts | 26° |
| 2026-05-04 15:00 | 57.66848 | 12.28838 | 513 ft | 17 kts | 26° |
| 2026-05-04 15:00 | 57.66961 | 12.28941 | 514 ft | 19 kts | 26° |
| 2026-05-04 15:00 | 57.67037 | 12.29016 | 514 ft | 11 kts | 39° |
| 2026-05-04 15:01 | 57.67002 | 12.29232 | 516 ft | 9 kts | 116° |
| 2026-05-04 15:01 | 57.66973 | 12.29325 | 516 ft | 8 kts | 130° |
| 2026-05-04 15:01 | 57.66948 | 12.29404 | 516 ft | 6 kts | 114° |
| 2026-05-04 15:01 | 57.66935 | 12.29455 | 516 ft | 2 kts | 116° |
| 2026-05-04 15:02 | 57.66931 | 12.29470 | 516 ft | 0 kts | 116° |